createdAt,value
2019-03-17T00:02:50.272Z,99091.73
2019-03-17T00:05:57.063Z,99094.06
2019-03-17T00:09:06.347Z,99085.00
2019-03-17T00:12:22.880Z,99082.72
2019-03-17T00:15:30.025Z,99074.86
2019-03-17T00:18:37.158Z,99068.34
2019-03-17T00:21:44.527Z,99065.25
2019-03-17T00:25:09.139Z,99066.94
2019-03-17T00:28:09.985Z,99063.63
2019-03-17T00:31:23.631Z,99056.36
2019-03-17T00:34:44.018Z,99049.88
2019-03-17T00:37:53.925Z,99051.70
2019-03-17T00:41:10.696Z,99032.37
2019-03-17T00:44:17.827Z,99040.62
2019-03-17T00:47:25.061Z,99031.38
2019-03-17T00:50:32.322Z,99023.12
2019-03-17T00:53:49.011Z,99014.23
2019-03-17T00:56:56.417Z,99013.92
2019-03-17T01:00:13.336Z,99013.45
2019-03-17T01:03:29.812Z,99000.34
2019-03-17T01:06:36.963Z,98994.13
2019-03-17T01:09:44.150Z,98996.81
2019-03-17T01:12:51.358Z,98997.22
2019-03-17T01:15:58.591Z,98996.52
2019-03-17T01:19:05.815Z,98991.58
2019-03-17T01:22:13.200Z,98984.41
2019-03-17T01:25:18.726Z,98968.67
2019-03-17T01:28:41.372Z,98957.96
2019-03-17T01:31:48.623Z,98950.00
2019-03-17T01:35:08.247Z,98950.50
2019-03-17T01:38:04.726Z,98951.32
2019-03-17T01:41:21.344Z,98965.31
2019-03-17T01:44:28.634Z,98951.78
2019-03-17T01:47:35.834Z,98941.59
2019-03-17T01:50:43.029Z,98934.45
2019-03-17T01:53:50.206Z,98926.22
2019-03-17T01:56:57.327Z,98930.73
2019-03-17T02:00:04.911Z,98925.23
2019-03-17T02:03:21.353Z,98927.45
2019-03-17T02:06:28.474Z,98912.55
2019-03-17T02:09:35.728Z,98920.07
2019-03-17T02:12:42.947Z,98908.78
2019-03-17T02:15:50.360Z,98902.61
2019-03-17T02:19:06.980Z,98900.03
2019-03-17T02:22:14.174Z,98899.88
2019-03-17T02:25:21.387Z,98899.47
2019-03-17T02:28:28.514Z,98891.50
2019-03-17T02:31:35.686Z,98888.55
2019-03-17T02:34:42.823Z,98892.95
2019-03-17T02:37:49.941Z,98883.82
2019-03-17T02:40:57.331Z,98876.41
2019-03-17T02:44:04.548Z,98872.72
2019-03-17T02:47:11.883Z,98866.55
2019-03-17T02:50:28.485Z,98856.96
2019-03-17T02:53:35.604Z,98856.61
2019-03-17T02:56:42.726Z,98871.75
2019-03-17T02:59:50.029Z,98851.80
2019-03-17T03:02:57.458Z,98849.24
2019-03-17T03:06:20.165Z,98848.15
2019-03-17T03:09:36.846Z,98841.05
2019-03-17T03:12:44.069Z,98849.28
2019-03-17T03:15:51.244Z,98839.42
2019-03-17T03:18:58.368Z,98832.71
2019-03-17T03:22:05.489Z,98839.91
2019-03-17T03:25:12.691Z,98833.67
2019-03-17T03:28:20.517Z,98817.73
2019-03-17T03:31:37.367Z,98814.84
2019-03-17T03:34:53.646Z,98818.92
2019-03-17T03:38:00.903Z,98810.89
2019-03-17T03:41:17.687Z,98804.25
2019-03-17T03:44:24.820Z,98808.53
2019-03-17T03:47:31.995Z,98786.76
2019-03-17T03:50:39.110Z,98804.59
2019-03-17T03:53:46.443Z,98815.28
2019-03-17T03:56:53.663Z,98797.34
2019-03-17T04:00:00.915Z,98783.41
2019-03-17T04:03:08.143Z,98787.80
2019-03-17T04:06:26.393Z,98794.17
2019-03-17T04:09:24.104Z,98787.66
2019-03-17T04:12:30.261Z,98784.66
2019-03-17T04:15:37.485Z,98781.48
2019-03-17T04:18:44.721Z,98787.77
2019-03-17T04:21:51.848Z,98795.08
2019-03-17T04:24:59.055Z,98797.86
2019-03-17T04:28:06.602Z,98794.95
2019-03-17T04:31:14.736Z,98791.30
2019-03-17T04:34:31.237Z,98783.98
2019-03-17T04:37:38.619Z,98785.83
2019-03-17T04:40:55.218Z,98785.10
2019-03-17T04:44:02.455Z,98782.50
2019-03-17T04:47:09.604Z,98772.92
2019-03-17T04:50:16.903Z,98764.85
2019-03-17T04:53:24.086Z,98757.75
2019-03-17T04:56:40.793Z,98746.66
2019-03-17T04:59:47.921Z,98734.58
2019-03-17T05:02:55.079Z,98741.38
2019-03-17T05:06:02.096Z,98748.66
2019-03-17T05:09:09.298Z,98732.48
2019-03-17T05:12:16.592Z,98732.16
2019-03-17T05:15:23.866Z,98737.39
2019-03-17T05:18:31.006Z,98742.74
2019-03-17T05:21:38.304Z,98716.77
2019-03-17T05:24:45.539Z,98725.95
2019-03-17T05:27:52.670Z,98741.21
2019-03-17T05:30:59.878Z,98732.36
2019-03-17T05:34:07.117Z,98730.27
2019-03-17T05:37:14.441Z,98738.55
2019-03-17T05:40:21.934Z,98754.53
2019-03-17T05:43:38.382Z,98722.92
2019-03-17T05:46:45.602Z,98737.04
2019-03-17T05:49:52.741Z,98737.02
2019-03-17T05:52:59.966Z,98754.94
2019-03-17T05:56:07.220Z,98745.07
2019-03-17T05:59:14.491Z,98755.06
2019-03-17T06:02:21.707Z,98760.88
2019-03-17T06:05:38.363Z,98759.34
2019-03-17T06:08:45.538Z,98764.54
2019-03-17T06:11:52.663Z,98766.28
2019-03-17T06:14:59.826Z,98771.17
2019-03-17T06:18:07.051Z,98764.07
2019-03-17T06:21:14.258Z,98762.41
2019-03-17T06:24:21.449Z,98759.27
2019-03-17T06:27:28.585Z,98754.45
2019-03-17T06:30:35.710Z,98756.70
2019-03-17T06:33:43.020Z,98755.31
2019-03-17T06:36:50.135Z,98758.22
2019-03-17T06:39:57.402Z,98756.13
2019-03-17T06:43:04.708Z,98769.58
2019-03-17T06:46:12.056Z,98754.50
2019-03-17T06:49:19.276Z,98758.41
2019-03-17T06:52:36.380Z,98762.17
2019-03-17T06:55:52.751Z,98761.83
2019-03-17T06:58:59.912Z,98785.86
2019-03-17T07:02:07.310Z,98838.04
2019-03-17T07:05:23.983Z,98849.72
2019-03-17T07:08:31.160Z,98856.61
2019-03-17T07:11:38.379Z,98868.55
2019-03-17T07:14:45.520Z,98869.86
2019-03-17T07:17:52.806Z,98884.36
2019-03-17T07:21:09.496Z,98890.12
2019-03-17T07:24:16.618Z,98891.91
2019-03-17T07:27:23.840Z,98901.41
2019-03-17T07:30:31.044Z,98910.47
2019-03-17T07:33:38.163Z,98913.93
2019-03-17T07:36:45.378Z,98917.37
2019-03-17T07:39:52.583Z,98929.50
2019-03-17T07:42:59.808Z,98930.58
2019-03-17T07:46:06.936Z,98941.17
2019-03-17T07:49:14.220Z,98951.27
2019-03-17T07:52:21.322Z,98964.13
2019-03-17T07:55:28.543Z,98966.50
2019-03-17T07:58:35.691Z,98971.41
2019-03-17T08:01:42.819Z,98977.50
2019-03-17T08:04:50.270Z,98978.22
2019-03-17T08:08:08.685Z,98992.81
2019-03-17T08:11:06.352Z,98986.25
2019-03-17T08:14:14.021Z,98985.43
2019-03-17T08:17:30.391Z,98978.13
2019-03-17T08:20:37.608Z,98982.88
2019-03-17T08:23:44.774Z,98988.17
2019-03-17T08:27:01.940Z,98992.19
2019-03-17T08:30:18.632Z,98982.69
2019-03-17T08:33:35.107Z,98992.55
2019-03-17T08:36:42.266Z,99000.98
2019-03-17T08:39:48.345Z,99011.47
2019-03-17T08:43:04.667Z,99023.95
2019-03-17T08:46:11.787Z,99032.51
2019-03-17T08:49:18.928Z,99048.45
2019-03-17T08:52:26.150Z,99050.02
2019-03-17T08:55:33.370Z,99040.80
2019-03-17T08:58:40.601Z,99031.89
2019-03-17T09:01:47.874Z,99028.80
2019-03-17T09:05:04.962Z,99034.80
2019-03-17T09:08:33.955Z,99066.69
2019-03-17T09:11:30.287Z,99077.63
2019-03-17T09:14:46.983Z,99088.22
2019-03-17T09:17:54.308Z,99090.02
2019-03-17T09:21:11.000Z,99075.27
2019-03-17T09:24:18.201Z,99084.55
2019-03-17T09:27:25.364Z,99075.71
2019-03-17T09:30:32.528Z,99088.10
2019-03-17T09:33:39.745Z,99078.92
2019-03-17T09:36:46.952Z,99093.16
2019-03-17T09:39:54.086Z,99092.77
2019-03-17T09:43:01.228Z,99098.06
2019-03-17T09:46:08.486Z,99102.98
2019-03-17T09:49:15.618Z,99094.33
2019-03-17T09:52:22.949Z,99104.23
2019-03-17T09:55:30.073Z,99100.14
2019-03-17T09:58:37.655Z,99121.38
2019-03-17T10:01:54.419Z,99114.84
2019-03-17T10:05:11.052Z,99117.00
2019-03-17T10:08:27.643Z,99120.38
2019-03-17T10:11:34.866Z,99123.99
2019-03-17T10:14:42.002Z,99126.34
2019-03-17T10:17:49.225Z,99122.81
2019-03-17T10:21:06.087Z,99124.66
2019-03-17T10:24:13.310Z,99135.05
2019-03-17T10:27:29.976Z,99118.02
2019-03-17T10:30:37.165Z,99135.41
2019-03-17T10:33:45.750Z,99123.39
2019-03-17T10:36:52.943Z,99131.79
2019-03-17T10:39:59.598Z,99129.94
2019-03-17T10:43:06.767Z,99139.27
2019-03-17T10:46:13.905Z,99151.47
2019-03-17T10:49:21.945Z,99147.18
2019-03-17T10:52:29.072Z,99150.91
2019-03-17T10:55:36.211Z,99165.52
2019-03-17T10:58:43.335Z,99158.50
2019-03-17T11:01:50.499Z,99158.62
2019-03-17T11:04:57.624Z,99151.13
2019-03-17T11:08:04.966Z,99159.44
2019-03-17T11:11:12.508Z,99163.19
2019-03-17T11:14:19.634Z,99155.33
2019-03-17T11:17:26.760Z,99168.47
2019-03-17T11:20:34.006Z,99172.67
2019-03-17T11:23:41.129Z,99172.48
2019-03-17T11:26:48.465Z,99183.42
2019-03-17T11:30:05.979Z,99195.02
2019-03-17T11:33:13.205Z,99182.59
2019-03-17T11:36:20.366Z,99199.09
2019-03-17T11:39:37.196Z,99205.66
2019-03-17T11:42:36.453Z,99201.30
2019-03-17T11:45:43.785Z,99205.22
2019-03-17T11:48:51.056Z,99208.50
2019-03-17T11:51:58.367Z,99195.81
2019-03-17T11:55:06.374Z,99208.02
2019-03-17T11:58:22.891Z,99190.95
2019-03-17T12:01:39.642Z,99179.66
2019-03-17T12:04:46.761Z,99180.53
2019-03-17T12:07:53.946Z,99194.89
2019-03-17T12:11:01.171Z,99198.33
2019-03-17T12:14:09.879Z,99212.34
2019-03-17T12:17:17.363Z,99228.66
2019-03-17T12:20:34.052Z,99223.69
2019-03-17T12:23:41.331Z,99234.23
2019-03-17T12:26:48.458Z,99231.56
2019-03-17T12:29:55.662Z,99228.48
2019-03-17T12:33:02.890Z,99226.86
2019-03-17T12:36:10.269Z,99228.14
2019-03-17T12:39:16.970Z,99222.36
2019-03-17T12:42:24.180Z,99225.95
2019-03-17T12:45:31.456Z,99240.97
2019-03-17T12:48:38.693Z,99238.97
2019-03-17T12:51:45.914Z,99238.97
2019-03-17T12:54:53.112Z,99248.59
2019-03-17T12:58:00.541Z,99247.05
2019-03-17T13:01:07.684Z,99253.84
2019-03-17T13:04:14.910Z,99255.12
2019-03-17T13:07:22.041Z,99248.92
2019-03-17T13:10:29.404Z,99253.31
2019-03-17T13:13:46.009Z,99243.72
2019-03-17T13:16:53.139Z,99252.38
2019-03-17T13:20:00.384Z,99256.30
2019-03-17T13:23:07.554Z,99251.74
2019-03-17T13:26:14.785Z,99249.95
2019-03-17T13:29:21.911Z,99252.39
2019-03-17T13:32:29.237Z,99267.00
2019-03-17T13:35:36.382Z,99319.58
2019-03-17T13:38:43.666Z,99316.25
2019-03-17T13:42:00.375Z,99315.40
2019-03-17T13:45:08.147Z,99316.77
2019-03-17T13:48:15.363Z,99330.09
2019-03-17T13:51:22.679Z,99333.44
2019-03-17T13:54:29.378Z,99300.41
2019-03-17T13:57:57.007Z,99305.63
2019-03-17T14:01:04.323Z,99307.27
2019-03-17T14:04:11.438Z,99306.33
2019-03-17T14:07:18.773Z,99310.28
2019-03-17T14:10:25.902Z,99314.11
2019-03-17T14:13:33.280Z,99322.29
2019-03-17T14:16:40.438Z,99337.56
2019-03-17T14:19:47.940Z,99338.02
2019-03-17T14:22:55.065Z,99351.80
2019-03-17T14:26:02.188Z,99344.73
2019-03-17T14:29:09.663Z,99355.34
2019-03-17T14:32:16.779Z,99367.56
2019-03-17T14:35:24.039Z,99370.45
2019-03-17T14:38:31.296Z,99368.20
2019-03-17T14:41:38.054Z,99386.02
2019-03-17T14:44:45.346Z,99391.27
2019-03-17T14:47:52.483Z,99399.53
2019-03-17T14:50:59.604Z,99408.67
2019-03-17T14:54:06.871Z,99430.12
2019-03-17T14:57:13.998Z,99401.17
2019-03-17T15:00:21.204Z,99414.20
2019-03-17T15:03:28.324Z,99415.28
2019-03-17T15:06:35.607Z,99423.09
2019-03-17T15:09:42.753Z,99424.66
2019-03-17T15:12:49.966Z,99426.59
2019-03-17T15:16:02.753Z,99427.41
2019-03-17T15:19:06.412Z,99429.05
2019-03-17T15:22:13.606Z,99427.58
2019-03-17T15:25:20.704Z,99434.12
2019-03-17T15:28:27.878Z,99432.59
2019-03-17T15:31:35.012Z,99433.51
2019-03-17T15:34:42.199Z,99434.03
2019-03-17T15:37:49.513Z,99442.34
2019-03-17T15:40:56.809Z,99448.14
2019-03-17T15:44:04.126Z,99453.24
2019-03-17T15:47:11.255Z,99457.64
2019-03-17T15:50:18.521Z,99467.80
2019-03-17T15:53:25.765Z,99468.21
2019-03-17T15:56:42.356Z,99474.55
2019-03-17T15:59:49.560Z,99472.56
2019-03-17T16:02:56.685Z,99477.56
2019-03-17T16:06:03.956Z,99471.45
2019-03-17T16:09:11.146Z,99472.44
2019-03-17T16:12:18.430Z,99481.77
2019-03-17T16:15:35.216Z,99485.40
2019-03-17T16:18:42.376Z,99486.02
2019-03-17T16:21:49.594Z,99486.95
2019-03-17T16:25:06.853Z,99487.14
2019-03-17T16:28:14.254Z,99486.03
2019-03-17T16:31:21.495Z,99494.12
2019-03-17T16:34:28.679Z,99497.59
2019-03-17T16:37:35.887Z,99503.19
2019-03-17T16:40:43.095Z,99518.50
2019-03-17T16:43:50.379Z,99524.66
2019-03-17T16:46:57.742Z,99507.19
2019-03-17T16:50:06.170Z,99509.09
2019-03-17T16:53:13.368Z,99520.82
2019-03-17T16:56:20.482Z,99523.02
2019-03-17T16:59:36.728Z,99521.02
2019-03-17T17:02:44.283Z,99528.85
2019-03-17T17:06:00.840Z,99531.11
2019-03-17T17:09:08.242Z,99529.84
2019-03-17T17:12:24.712Z,99544.98
2019-03-17T17:15:32.147Z,99541.69
2019-03-17T17:18:48.744Z,99551.15
2019-03-17T17:21:58.602Z,99544.81
2019-03-17T17:25:14.436Z,99551.11
2019-03-17T17:28:31.039Z,99557.73
2019-03-17T17:31:38.276Z,99565.67
2019-03-17T17:34:45.430Z,99571.83
2019-03-17T17:37:52.838Z,99587.45
2019-03-17T17:41:11.249Z,99573.80
2019-03-17T17:44:37.816Z,99578.43
2019-03-17T17:47:45.189Z,99598.66
2019-03-17T17:51:01.783Z,99591.08
2019-03-17T17:54:09.017Z,99608.02
2019-03-17T17:57:16.225Z,99607.44
2019-03-17T18:00:23.512Z,99604.44
2019-03-17T18:03:30.630Z,99611.18
2019-03-17T18:06:37.816Z,99612.75
2019-03-17T18:09:44.950Z,99614.27
2019-03-17T18:12:52.265Z,99617.72
2019-03-17T18:15:59.390Z,99609.84
2019-03-17T18:19:06.602Z,99614.25
2019-03-17T18:22:13.922Z,99627.84
2019-03-17T18:25:21.085Z,99631.12
2019-03-17T18:28:37.897Z,99628.42
2019-03-17T18:31:45.127Z,99638.38
2019-03-17T18:35:01.751Z,99630.47
2019-03-17T18:38:09.091Z,99643.47
2019-03-17T18:41:16.307Z,99631.91
2019-03-17T18:44:32.971Z,99626.77
2019-03-17T18:47:40.224Z,99623.53
2019-03-17T18:50:45.835Z,99645.38
2019-03-17T18:53:53.061Z,99622.03
2019-03-17T18:57:00.335Z,99636.23
2019-03-17T19:00:17.604Z,99650.21
2019-03-17T19:03:24.849Z,99631.92
2019-03-17T19:06:32.256Z,99655.16
2019-03-17T19:09:39.482Z,99656.13
2019-03-17T19:12:47.086Z,99654.16
2019-03-17T19:15:54.210Z,99661.67
2019-03-17T19:19:01.323Z,99677.69
2019-03-17T19:22:08.482Z,99668.28
2019-03-17T19:25:16.044Z,99672.97
2019-03-17T19:28:23.244Z,99664.95
2019-03-17T19:31:30.331Z,99669.32
2019-03-17T19:34:37.559Z,99665.23
2019-03-17T19:37:44.785Z,99665.25
2019-03-17T19:40:52.007Z,99664.13
2019-03-17T19:43:59.335Z,99671.39
2019-03-17T19:47:06.637Z,99666.48
2019-03-17T19:50:23.474Z,99661.42
2019-03-17T19:53:29.102Z,99671.65
2019-03-17T19:56:45.787Z,99674.41
2019-03-17T19:59:53.081Z,99668.13
2019-03-17T20:03:09.809Z,99668.75
2019-03-17T20:06:26.547Z,99672.29
2019-03-17T20:09:33.891Z,99675.28
2019-03-17T20:12:50.668Z,99674.53
2019-03-17T20:16:07.223Z,99683.05
2019-03-17T20:19:14.566Z,99672.00
2019-03-17T20:22:31.226Z,99671.28
2019-03-17T20:25:38.625Z,99685.41
2019-03-17T20:28:55.141Z,99679.95
2019-03-17T20:32:02.464Z,99693.41
2019-03-17T20:35:09.911Z,99693.78
2019-03-17T20:38:26.422Z,99673.28
2019-03-17T20:41:43.139Z,99676.22
2019-03-17T20:44:59.845Z,99679.03
2019-03-17T20:48:07.016Z,99680.03
2019-03-17T20:51:14.294Z,99678.45
2019-03-17T20:54:21.478Z,99686.42
2019-03-17T20:57:28.621Z,99683.98
2019-03-17T21:00:35.952Z,99689.39
2019-03-17T21:03:52.740Z,99683.30
2019-03-17T21:06:59.871Z,99684.81
2019-03-17T21:10:08.435Z,99690.48
2019-03-17T21:13:15.455Z,99673.43
2019-03-17T21:16:22.665Z,99695.56
2019-03-17T21:19:29.848Z,99685.77
2019-03-17T21:22:36.987Z,99689.83
2019-03-17T21:25:45.789Z,99692.89
2019-03-17T21:28:52.920Z,99680.75
2019-03-17T21:32:00.319Z,99697.20
2019-03-17T21:35:07.629Z,99692.64
2019-03-17T21:38:14.760Z,99683.81
2019-03-17T21:41:21.881Z,99703.40
2019-03-17T21:44:29.108Z,99682.61
2019-03-17T21:47:36.315Z,99696.83
2019-03-17T21:50:43.519Z,99692.78
2019-03-17T21:53:50.719Z,99682.26
2019-03-17T21:56:57.904Z,99689.58
2019-03-17T22:00:05.726Z,99710.75
2019-03-17T22:03:22.277Z,99693.91
2019-03-17T22:06:29.303Z,99685.00
2019-03-17T22:09:36.534Z,99685.14
2019-03-17T22:12:43.766Z,99678.71
2019-03-17T22:15:50.960Z,99687.30
2019-03-17T22:18:58.451Z,99679.16
2019-03-17T22:22:15.047Z,99677.20
2019-03-17T22:25:22.254Z,99681.55
2019-03-17T22:28:29.382Z,99669.66
2019-03-17T22:31:36.683Z,99692.62
2019-03-17T22:34:44.402Z,99692.59
2019-03-17T22:37:51.626Z,99685.88
2019-03-17T22:40:58.743Z,99697.84
2019-03-17T22:44:06.048Z,99711.51
2019-03-17T22:47:13.270Z,99709.28
2019-03-17T22:50:20.562Z,99708.14
2019-03-17T22:53:27.686Z,99712.05
2019-03-17T22:56:34.894Z,99705.84
2019-03-17T22:59:52.552Z,99700.62
2019-03-17T23:02:59.673Z,99724.16
2019-03-17T23:06:06.850Z,99714.93
2019-03-17T23:09:13.966Z,99719.19
2019-03-17T23:12:21.085Z,99732.25
2019-03-17T23:15:28.320Z,99718.45
2019-03-17T23:18:35.614Z,99720.36
2019-03-17T23:21:42.737Z,99727.33
2019-03-17T23:24:50.597Z,99717.94
2019-03-17T23:28:06.924Z,99728.49
2019-03-17T23:31:14.122Z,99709.41
2019-03-17T23:34:21.250Z,99722.48
2019-03-17T23:37:28.369Z,99736.50
2019-03-17T23:40:35.520Z,99737.44
2019-03-17T23:43:42.756Z,99748.03
2019-03-17T23:46:49.882Z,99751.46
2019-03-17T23:49:57.668Z,99745.88
2019-03-17T23:53:14.103Z,99764.50
2019-03-17T23:56:21.232Z,99774.69
2019-03-17T23:59:28.350Z,99771.62
